Time;durP1;ratioP1;P1;durP2;ratioP2;P2;SDS_P1;SDS_P2;PMS_P1;PMS_P2;Temp;Humidity;BMP_temperature;BMP_pressure;BME280_temperature;BME280_humidity;BME280_pressure;Samples;Min_cycle;Max_cycle;Signal;HPM_P1;HPM_P2
2023/12/19 00:01:22;;;;;;;15.75;7.95;;;;;;;5.48;70.72;100901.53;3155209;28;20106;-76
2023/12/19 00:02:54;;;;;;;18.88;8.25;;;;;;;5.47;70.67;100898.97;3151205;28;20052;-77
2023/12/19 00:04:25;;;;;;;16.45;7.80;;;;;;;5.35;70.52;100880.97;3158662;28;20489;-77
2023/12/19 00:05:57;;;;;;;16.27;7.65;;;;;;;5.40;70.96;100892.97;3158122;28;20059;-76
2023/12/19 00:07:28;;;;;;;16.75;7.85;;;;;;;5.36;70.88;100887.88;3152122;28;20058;-75
2023/12/19 00:09:00;;;;;;;15.00;7.68;;;;;;;5.08;71.14;100845.84;3157246;28;20055;-76
2023/12/19 00:10:32;;;;;;;18.13;7.85;;;;;;;5.38;71.20;100902.50;3151590;28;20054;-75
2023/12/19 00:12:05;;;;;;;14.52;7.32;;;;;;;5.36;71.07;100898.19;3154922;28;20051;-74
2023/12/19 00:13:36;;;;;;;16.42;7.53;;;;;;;5.34;71.23;100897.34;3156414;28;20044;-75
2023/12/19 00:15:08;;;;;;;16.73;8.02;;;;;;;5.30;71.31;100886.16;3151533;28;20521;-75
2023/12/19 00:16:39;;;;;;;14.02;7.65;;;;;;;5.16;71.41;100868.16;3152620;28;20067;-76
2023/12/19 00:18:11;;;;;;;14.77;8.05;;;;;;;5.35;71.46;100899.03;3158190;28;20055;-76
2023/12/19 00:19:42;;;;;;;15.38;7.90;;;;;;;5.33;71.28;100898.22;3164326;28;20063;-76
2023/12/19 00:21:14;;;;;;;16.92;8.80;;;;;;;5.30;71.48;100890.47;3151777;28;20071;-76
2023/12/19 00:22:44;;;;;;;16.95;7.95;;;;;;;5.30;71.50;100896.50;3153781;28;20056;-75
2023/12/19 00:24:16;;;;;;;17.23;8.70;;;;;;;5.32;71.33;100893.91;3153301;28;20139;-75
2023/12/19 00:25:48;;;;;;;17.20;8.70;;;;;;;5.30;71.27;100895.66;3153523;28;20079;-76
2023/12/19 00:27:20;;;;;;;17.48;7.90;;;;;;;5.29;71.62;100899.09;3154342;28;20112;-75
2023/12/19 00:28:52;;;;;;;17.27;8.02;;;;;;;5.27;71.74;100901.69;3151156;28;20047;-75
2023/12/19 00:30:24;;;;;;;23.23;10.65;;;;;;;5.24;71.73;100897.41;3158888;28;20492;-75
2023/12/19 00:31:56;;;;;;;19.42;8.85;;;;;;;5.23;71.72;100894.81;3163585;28;20097;-75
2023/12/19 00:33:26;;;;;;;22.92;10.98;;;;;;;5.21;71.58;100892.25;3156496;28;20086;-77
2023/12/19 00:34:58;;;;;;;21.35;10.27;;;;;;;5.20;71.73;100893.09;3151569;28;20535;-76
2023/12/19 00:36:29;;;;;;;22.23;10.13;;;;;;;5.19;71.66;100896.56;3155542;28;20224;-76
2023/12/19 00:38:03;;;;;;;19.83;9.75;;;;;;;5.18;71.86;100897.44;3159372;28;20063;-76
2023/12/19 00:39:36;;;;;;;22.48;10.60;;;;;;;5.12;71.80;100894.88;3160536;28;20059;-77
2023/12/19 00:41:09;;;;;;;24.13;10.38;;;;;;;5.13;71.93;100903.47;3153847;28;20590;-76
2023/12/19 00:42:41;;;;;;;20.70;9.98;;;;;;;5.07;71.88;100900.94;3162144;28;20120;-76
2023/12/19 00:44:13;;;;;;;21.15;10.30;;;;;;;5.06;72.02;100902.66;3151195;28;20095;-70
2023/12/19 00:45:44;;;;;;;21.55;10.40;;;;;;;5.05;72.14;100898.34;3151501;28;20075;-76
2023/12/19 00:47:15;;;;;;;17.73;9.30;;;;;;;5.05;72.20;100895.75;3164060;28;20301;-76
2023/12/19 00:48:46;;;;;;;18.00;8.88;;;;;;;5.02;72.17;100898.38;3153236;28;20063;-77
2023/12/19 00:50:18;;;;;;;17.98;9.25;;;;;;;4.99;71.91;100899.22;3164591;28;20051;-76
2023/12/19 00:51:50;;;;;;;21.27;9.05;;;;;;;4.93;72.26;100893.25;3164608;28;20059;-76
2023/12/19 00:53:21;;;;;;;18.90;9.15;;;;;;;4.84;72.10;100888.13;3153428;28;20090;-76
2023/12/19 00:54:52;;;;;;;15.48;7.82;;;;;;;4.91;72.04;100907.88;3153519;28;20182;-75
2023/12/19 00:56:25;;;;;;;16.75;8.48;;;;;;;4.89;72.31;100905.31;3156994;28;20052;-76
2023/12/19 00:57:56;;;;;;;17.40;8.52;;;;;;;4.86;72.37;100897.59;3160874;28;20113;-75
2023/12/19 00:59:27;;;;;;;15.73;8.70;;;;;;;4.83;72.28;100900.19;3163400;28;20050;-76
2023/12/19 01:00:59;;;;;;;18.58;8.27;;;;;;;4.81;72.49;100899.31;3160343;28;20525;-75
2023/12/19 01:02:32;;;;;;;18.92;8.55;;;;;;;4.73;72.42;100889.03;3158037;28;20079;-76
2023/12/19 01:04:04;;;;;;;16.80;8.77;;;;;;;4.74;72.48;100888.16;3160609;28;20046;-75
2023/12/19 01:05:35;;;;;;;18.98;8.85;;;;;;;4.68;72.51;100880.44;3162597;28;20155;-75
2023/12/19 01:07:06;;;;;;;18.15;9.02;;;;;;;4.62;72.48;100871.88;3159889;28;20047;-77
2023/12/19 01:08:38;;;;;;;17.63;8.88;;;;;;;4.68;72.46;100892.50;3164122;28;20059;-76
2023/12/19 01:10:10;;;;;;;18.27;8.85;;;;;;;4.65;72.48;100885.63;3153512;28;20056;-76
2023/12/19 01:11:43;;;;;;;20.27;9.02;;;;;;;4.63;72.54;100879.59;3153224;28;20052;-76
2023/12/19 01:13:14;;;;;;;23.02;10.60;;;;;;;4.59;72.53;100883.06;3154636;28;20048;-76
2023/12/19 01:14:46;;;;;;;21.05;9.23;;;;;;;4.54;72.61;100887.38;3166003;28;20613;-76
2023/12/19 01:16:16;;;;;;;22.58;9.57;;;;;;;4.50;72.69;100873.63;3166042;28;20051;-76
2023/12/19 01:17:48;;;;;;;18.67;9.65;;;;;;;4.43;72.87;100868.47;3165544;28;20047;-76
2023/12/19 01:19:19;;;;;;;18.35;8.80;;;;;;;4.44;73.13;100871.06;3165280;28;20662;-75
2023/12/19 01:20:51;;;;;;;23.00;10.85;;;;;;;4.41;73.18;100870.19;3157232;28;20051;-74
2023/12/19 01:22:22;;;;;;;23.52;9.90;;;;;;;4.28;73.36;100856.50;3158012;28;20047;-74
2023/12/19 01:23:54;;;;;;;25.00;11.48;;;;;;;4.39;73.24;100872.81;3158456;28;20048;-74
2023/12/19 01:25:25;;;;;;;23.33;11.05;;;;;;;4.39;73.34;100877.09;3152846;28;20052;-73
2023/12/19 01:26:58;;;;;;;23.83;10.55;;;;;;;4.39;73.30;100874.53;3159303;28;20528;-74
2023/12/19 01:28:29;;;;;;;21.00;10.02;;;;;;;4.35;73.33;100871.09;3165700;28;20051;-74
2023/12/19 01:30:01;;;;;;;19.35;9.63;;;;;;;4.33;73.58;100873.66;3165693;28;20786;-74
2023/12/19 01:31:31;;;;;;;22.85;9.20;;;;;;;4.30;73.55;100865.09;3165462;28;20051;-75
2023/12/19 01:33:04;;;;;;;22.30;9.57;;;;;;;4.30;73.57;100872.81;3163309;28;20524;-74
2023/12/19 01:34:35;;;;;;;22.45;10.65;;;;;;;4.24;73.78;100865.97;3152854;28;20059;-76
2023/12/19 01:36:07;;;;;;;22.30;9.48;;;;;;;4.28;73.59;100874.53;3158411;28;20646;-77
2023/12/19 01:37:38;;;;;;;22.63;9.60;;;;;;;4.25;73.65;100866.81;3163986;28;20145;-76
2023/12/19 01:39:10;;;;;;;28.25;11.35;;;;;;;4.23;73.89;100856.53;3165912;28;20075;-77
2023/12/19 01:40:41;;;;;;;27.20;11.48;;;;;;;4.24;73.81;100860.81;3165475;28;20056;-77
2023/12/19 01:42:14;;;;;;;25.25;10.50;;;;;;;4.26;73.89;100856.50;3154318;28;20812;-77
2023/12/19 01:43:45;;;;;;;20.92;9.02;;;;;;;4.26;73.87;100856.50;3153195;28;20055;-77
2023/12/19 01:45:16;;;;;;;19.75;9.38;;;;;;;4.26;74.05;100855.63;3153200;28;20453;-77
2023/12/19 01:46:47;;;;;;;19.63;9.15;;;;;;;4.24;74.04;100853.06;3152841;28;20051;-77
2023/12/19 01:48:20;;;;;;;22.98;9.45;;;;;;;4.24;74.06;100852.22;3161480;28;20059;-77
2023/12/19 01:49:51;;;;;;;16.35;8.52;;;;;;;4.20;74.40;100846.22;3161489;28;20674;-76
2023/12/19 01:51:23;;;;;;;23.88;10.70;;;;;;;4.21;74.20;100849.66;3165312;28;20060;-76
2023/12/19 01:52:57;;;;;;;18.73;9.63;;;;;;;4.21;74.21;100842.75;3159316;28;20052;-76
2023/12/19 01:54:28;;;;;;;23.65;9.13;;;;;;;4.21;74.12;100845.34;3152520;28;20044;-74
2023/12/19 01:56:00;;;;;;;21.45;9.35;;;;;;;4.20;74.38;100847.91;3155936;28;20071;-75
2023/12/19 01:57:33;;;;;;;21.35;9.48;;;;;;;4.22;74.24;100848.78;3152538;28;20158;-75
2023/12/19 01:59:06;;;;;;;24.98;11.32;;;;;;;4.17;74.17;100845.34;3153247;28;20052;-73
2023/12/19 02:00:37;;;;;;;17.52;9.07;;;;;;;4.17;74.35;100848.81;3162522;28;20083;-73
2023/12/19 02:02:09;;;;;;;18.67;8.95;;;;;;;3.99;74.29;100811.00;3154924;28;20060;-75
2023/12/19 02:03:41;;;;;;;22.02;9.82;;;;;;;4.16;74.27;100847.06;3163707;28;20062;-75
2023/12/19 02:05:13;;;;;;;24.55;9.55;;;;;;;4.16;74.30;100844.47;3152664;28;20477;-75
2023/12/19 02:06:45;;;;;;;21.52;9.90;;;;;;;4.08;74.36;100835.91;3152872;28;20058;-74
2023/12/19 02:08:15;;;;;;;19.17;8.80;;;;;;;4.10;74.47;100853.09;3152490;28;20157;-75
2023/12/19 02:09:47;;;;;;;20.10;9.02;;;;;;;4.05;74.58;100851.38;3152546;28;20048;-76
2023/12/19 02:11:18;;;;;;;22.42;9.18;;;;;;;4.05;74.63;100853.94;3152388;28;20071;-75
2023/12/19 02:12:51;;;;;;;19.77;9.18;;;;;;;4.01;74.69;100854.84;3162312;28;20051;-74
2023/12/19 02:14:22;;;;;;;19.55;9.55;;;;;;;3.97;74.75;100859.13;3163611;28;20052;-75
2023/12/19 02:15:54;;;;;;;19.63;8.95;;;;;;;3.96;74.93;100852.25;3157163;28;20059;-75
2023/12/19 02:17:25;;;;;;;18.30;8.48;;;;;;;3.59;74.85;100787.03;3152298;28;20079;-76
2023/12/19 02:19:04;;;;;;;18.23;9.18;;;;;;;3.99;74.68;100856.53;3153548;28;20082;-74
2023/12/19 02:20:34;;;;;;;16.42;8.68;;;;;;;3.97;74.93;100861.72;3152462;28;20052;-76
2023/12/19 02:22:06;;;;;;;17.42;8.48;;;;;;;3.83;74.95;100837.66;3152551;28;20119;-76
2023/12/19 02:23:38;;;;;;;20.52;8.52;;;;;;;3.87;74.91;100837.69;3157226;28;20452;-75
2023/12/19 02:25:10;;;;;;;19.20;8.82;;;;;;;3.93;75.01;100841.94;3161044;28;20048;-76
2023/12/19 02:26:41;;;;;;;19.33;8.90;;;;;;;3.94;74.99;100845.41;3152355;28;20059;-75
2023/12/19 02:28:13;;;;;;;19.27;9.32;;;;;;;3.93;75.07;100836.78;3152677;28;20067;-76
2023/12/19 02:31:34;;;;;;;19.27;8.98;;;;;;;3.88;75.18;100835.97;3152576;28;20064;-76
2023/12/19 02:33:05;;;;;;;19.10;9.27;;;;;;;3.77;75.21;100825.66;3155429;28;20621;-75
2023/12/19 02:34:37;;;;;;;19.08;8.38;;;;;;;3.87;75.19;100841.94;3162565;28;20043;-75
2023/12/19 02:36:09;;;;;;;18.45;8.90;;;;;;;3.85;75.29;100836.81;3153784;28;20137;-75
2023/12/19 02:37:41;;;;;;;22.35;10.48;;;;;;;3.86;75.25;100845.41;3162452;28;20524;-75
2023/12/19 02:39:14;;;;;;;17.60;8.63;;;;;;;3.86;75.43;100842.81;3165008;28;20363;-76
2023/12/19 02:40:45;;;;;;;16.33;8.10;;;;;;;3.81;75.47;100837.66;3152391;28;20051;-75
2023/12/19 02:42:16;;;;;;;22.23;9.50;;;;;;;3.85;75.46;100844.53;3152269;28;20565;-75
2023/12/19 02:43:47;;;;;;;21.23;9.35;;;;;;;3.80;75.48;100835.09;3152578;28;20052;-74
2023/12/19 02:45:19;;;;;;;22.23;9.75;;;;;;;3.84;75.52;100836.81;3162495;28;20715;-74
2023/12/19 02:46:49;;;;;;;23.10;9.50;;;;;;;3.83;75.59;100847.97;3164662;28;20047;-74
2023/12/19 02:48:21;;;;;;;17.52;8.63;;;;;;;3.83;75.68;100850.56;3164673;28;20500;-73
2023/12/19 02:49:52;;;;;;;22.02;9.15;;;;;;;3.79;75.62;100843.69;3156962;28;20437;-73
2023/12/19 02:51:24;;;;;;;22.05;9.85;;;;;;;3.81;75.48;100855.69;3158651;28;20105;-72
2023/12/19 02:52:56;;;;;;;17.42;8.23;;;;;;;3.80;75.48;100855.72;3164736;28;20227;-72
2023/12/19 02:54:29;;;;;;;18.05;7.63;;;;;;;3.81;75.52;100850.53;3159527;28;20549;-73
2023/12/19 02:56:00;;;;;;;14.30;7.55;;;;;;;3.79;75.57;100847.13;3155513;28;20579;-74
2023/12/19 02:57:32;;;;;;;16.38;8.00;;;;;;;3.79;75.72;100844.56;3152158;28;20047;-73
2023/12/19 02:59:03;;;;;;;16.65;7.45;;;;;;;3.74;75.70;100835.97;3152372;28;20120;-73
2023/12/19 03:00:34;;;;;;;19.77;8.38;;;;;;;3.78;75.56;100842.81;3162457;28;20154;-74
2023/12/19 03:02:06;;;;;;;16.77;8.18;;;;;;;3.72;75.51;100829.94;3153443;28;20051;-75
2023/12/19 03:03:38;;;;;;;20.33;8.27;;;;;;;3.65;75.69;100815.38;3162805;28;20059;-75
2023/12/19 03:05:10;;;;;;;15.47;8.00;;;;;;;3.67;75.67;100825.66;3151987;28;20048;-74
2023/12/19 03:06:41;;;;;;;12.98;6.88;;;;;;;3.71;75.70;100837.69;3152212;28;20317;-74
2023/12/19 03:08:13;;;;;;;19.02;8.75;;;;;;;3.64;75.80;100826.53;3164709;28;20051;-75
2023/12/19 03:09:45;;;;;;;18.13;8.48;;;;;;;3.65;75.87;100829.09;3164618;28;20082;-74
2023/12/19 03:11:16;;;;;;;18.90;7.85;;;;;;;3.62;76.02;100828.25;3153752;28;20510;-74
2023/12/19 03:12:47;;;;;;;17.20;8.13;;;;;;;3.62;76.01;100833.41;3151877;28;20082;-75
2023/12/19 03:14:19;;;;;;;14.55;7.45;;;;;;;3.62;76.00;100826.53;3162069;28;20051;-76
2023/12/19 03:15:50;;;;;;;18.38;8.07;;;;;;;3.62;75.98;100825.66;3156323;28;20149;-75
2023/12/19 03:17:21;;;;;;;16.55;7.45;;;;;;;3.59;76.10;100820.53;3151968;28;20056;-76
2023/12/19 03:18:52;;;;;;;17.60;8.18;;;;;;;3.58;76.22;100821.34;3155657;28;20052;-75
2023/12/19 03:20:24;;;;;;;17.63;7.90;;;;;;;3.57;76.17;100822.22;3157135;28;20519;-76
2023/12/19 03:21:55;;;;;;;15.20;7.40;;;;;;;3.55;76.18;100824.81;3159908;28;20635;-76
2023/12/19 03:23:28;;;;;;;16.35;7.47;;;;;;;3.59;76.30;100829.09;3151789;28;20052;-74
2023/12/19 03:25:00;;;;;;;15.88;7.82;;;;;;;3.58;76.19;100834.22;3151761;28;20051;-75
2023/12/19 03:26:32;;;;;;;13.55;7.65;;;;;;;3.58;76.27;100831.66;3154033;28;20154;-75
2023/12/19 03:28:03;;;;;;;17.70;8.45;;;;;;;3.57;76.29;100829.94;3164274;28;20058;-74
2023/12/19 03:29:35;;;;;;;21.45;8.48;;;;;;;3.56;76.12;100829.09;3163541;28;20062;-74
2023/12/19 03:31:06;;;;;;;15.65;7.88;;;;;;;3.39;76.23;100800.75;3151715;28;20062;-73
2023/12/19 03:32:38;;;;;;;20.52;8.40;;;;;;;3.54;76.14;100829.94;3155389;28;20096;-74
2023/12/19 03:34:08;;;;;;;14.40;7.75;;;;;;;3.52;76.18;100831.66;3164866;28;20059;-75
2023/12/19 03:35:40;;;;;;;15.35;7.68;;;;;;;3.52;76.36;100834.22;3152880;28;20043;-75
2023/12/19 03:37:11;;;;;;;13.07;6.80;;;;;;;3.50;76.22;100831.69;3162215;28;20052;-76
2023/12/19 03:38:43;;;;;;;17.33;7.50;;;;;;;3.50;76.26;100823.94;3153114;28;20237;-75
2023/12/19 03:40:16;;;;;;;16.13;7.22;;;;;;;3.51;76.21;100829.94;3151619;28;20052;-75
2023/12/19 03:41:49;;;;;;;14.75;6.68;;;;;;;3.49;76.31;100824.81;3151718;28;20048;-75
2023/12/19 03:43:20;;;;;;;15.77;7.25;;;;;;;3.48;76.27;100822.22;3159348;28;20155;-75
2023/12/19 03:44:52;;;;;;;16.95;8.38;;;;;;;3.49;76.34;100821.34;3163924;28;20330;-75
2023/12/19 03:46:23;;;;;;;13.82;7.45;;;;;;;3.48;76.47;100817.94;3158227;28;20058;-76
2023/12/19 03:47:54;;;;;;;17.30;8.40;;;;;;;3.48;76.48;100823.09;3155858;28;20051;-77
2023/12/19 03:49:27;;;;;;;15.27;7.47;;;;;;;3.49;76.44;100816.22;3151810;28;20052;-76
2023/12/19 03:50:58;;;;;;;17.08;7.63;;;;;;;3.48;76.49;100811.94;3155568;28;20059;-76
2023/12/19 03:52:29;;;;;;;18.65;8.10;;;;;;;3.49;76.50;100813.63;3161106;28;20532;-76
2023/12/19 03:54:01;;;;;;;18.02;8.23;;;;;;;3.45;76.50;100809.34;3151765;28;20052;-76
2023/12/19 03:55:33;;;;;;;20.60;9.02;;;;;;;3.47;76.51;100817.94;3154107;28;20051;-76
2023/12/19 03:57:05;;;;;;;21.58;8.80;;;;;;;3.46;76.63;100819.66;3151674;28;20056;-77
2023/12/19 03:58:38;;;;;;;15.68;8.23;;;;;;;3.47;76.49;100821.38;3151649;28;20056;-76
2023/12/19 04:00:11;;;;;;;22.55;9.57;;;;;;;3.45;76.62;100815.34;3153476;28;20078;-77
2023/12/19 04:01:43;;;;;;;28.00;16.13;;;;;;;2.85;76.56;100717.53;3154788;28;20052;-77
2023/12/19 04:03:15;;;;;;;25.48;12.98;;;;;;;3.40;76.70;100810.22;3153158;28;20071;-76
2023/12/19 04:04:47;;;;;;;18.45;9.38;;;;;;;3.48;76.72;100811.94;3151436;28;20079;-74
2023/12/19 04:06:18;;;;;;;18.92;9.48;;;;;;;3.48;76.74;100810.22;3151515;28;20179;-75
2023/12/19 04:07:50;;;;;;;18.40;9.32;;;;;;;3.48;76.62;100812.78;3152009;28;20052;-75
2023/12/19 04:09:21;;;;;;;21.38;9.30;;;;;;;3.46;76.72;100808.47;3151547;28;20102;-76
2023/12/19 04:10:55;;;;;;;23.20;8.68;;;;;;;3.41;76.73;100811.06;3154272;28;20481;-74
2023/12/19 04:12:26;;;;;;;17.77;8.07;;;;;;;3.40;76.60;100817.94;3163760;28;20268;-74
2023/12/19 04:13:57;;;;;;;17.48;8.75;;;;;;;3.38;76.69;100811.94;3154962;28;20052;-75
2023/12/19 04:15:30;;;;;;;19.63;8.63;;;;;;;3.37;76.71;100814.50;3151648;28;20693;-77
2023/12/19 04:17:01;;;;;;;15.93;7.72;;;;;;;3.34;76.51;100805.06;3160112;28;20070;-77
2023/12/19 04:18:32;;;;;;;17.10;8.60;;;;;;;3.33;76.59;100799.91;3160342;28;20044;-77
2023/12/19 04:20:04;;;;;;;20.92;8.50;;;;;;;3.32;76.58;100808.50;3151887;28;20132;-74
2023/12/19 04:21:36;;;;;;;15.55;8.18;;;;;;;3.30;76.66;100800.75;3151144;28;20048;-76
2023/12/19 04:23:08;;;;;;;19.00;8.40;;;;;;;3.28;76.57;100799.88;3154112;28;20060;-76
2023/12/19 04:24:39;;;;;;;15.88;7.72;;;;;;;3.26;76.55;100801.63;3166015;28;20056;-75
2023/12/19 04:26:19;;;;;;;22.33;9.15;;;;;;;3.26;76.49;100805.94;3154549;28;20526;-76
2023/12/19 04:27:50;;;;;;;17.73;8.27;;;;;;;3.21;76.50;100798.19;3153892;28;20565;-74
2023/12/19 04:29:21;;;;;;;22.63;10.52;;;;;;;3.16;76.59;100799.88;3153999;28;20059;-76
2023/12/19 04:30:53;;;;;;;22.20;9.80;;;;;;;3.19;76.52;100812.75;3165956;28;20465;-77
2023/12/19 04:32:24;;;;;;;15.25;8.90;;;;;;;3.18;76.80;100809.34;3166177;28;20070;-75
2023/12/19 04:33:56;;;;;;;18.75;9.32;;;;;;;3.17;76.75;100810.19;3156424;28;20056;-76
2023/12/19 04:35:26;;;;;;;19.73;9.15;;;;;;;3.17;76.67;100811.91;3154933;28;20577;-76
2023/12/19 04:36:58;;;;;;;18.98;9.10;;;;;;;3.16;76.70;100812.75;3153616;28;20190;-76
2023/12/19 04:38:29;;;;;;;17.88;9.65;;;;;;;3.11;76.68;100804.19;3153683;28;20070;-77
2023/12/19 04:40:02;;;;;;;18.52;8.88;;;;;;;3.13;76.49;100808.47;3153990;28;20056;-77
2023/12/19 04:41:35;;;;;;;17.33;8.27;;;;;;;3.10;76.53;100805.03;3156090;28;20063;-77
2023/12/19 04:43:07;;;;;;;18.27;9.50;;;;;;;3.09;76.59;100805.91;3160546;28;20056;-75
2023/12/19 04:44:37;;;;;;;18.08;9.43;;;;;;;3.07;76.69;100810.16;3165228;28;20119;-75
2023/12/19 04:46:09;;;;;;;17.70;9.02;;;;;;;3.06;76.84;100813.63;3161624;28;20044;-76
2023/12/19 04:47:41;;;;;;;18.92;9.10;;;;;;;3.04;76.85;100817.88;3153428;28;20056;-76
2023/12/19 04:49:12;;;;;;;20.75;9.45;;;;;;;3.02;76.85;100825.63;3153467;28;20497;-74
2023/12/19 04:50:44;;;;;;;15.85;8.18;;;;;;;3.01;76.84;100825.59;3153698;28;20150;-74
2023/12/19 04:52:15;;;;;;;17.50;8.63;;;;;;;2.99;76.93;100820.47;3154086;28;20108;-76
2023/12/19 04:53:46;;;;;;;19.38;9.05;;;;;;;2.99;76.83;100819.59;3154225;28;20296;-75
2023/12/19 04:55:17;;;;;;;21.67;9.27;;;;;;;2.98;76.99;100826.44;3164640;28;20082;-77
2023/12/19 04:56:51;;;;;;;18.67;9.07;;;;;;;3.00;76.95;100823.91;3155218;28;20441;-76
2023/12/19 04:58:21;;;;;;;20.88;9.88;;;;;;;2.97;76.98;100817.03;3166405;28;20051;-77
2023/12/19 04:59:53;;;;;;;20.75;11.52;;;;;;;2.95;77.03;100821.28;3161291;28;20094;-77
2023/12/19 05:01:25;;;;;;;24.50;10.77;;;;;;;2.94;77.03;100825.59;3166007;28;20052;-75
2023/12/19 05:02:56;;;;;;;17.58;9.88;;;;;;;2.93;76.98;100823.88;3166194;28;20063;-77
2023/12/19 05:04:27;;;;;;;20.27;10.05;;;;;;;2.91;77.04;100820.44;3160925;28;20048;-74
2023/12/19 05:05:59;;;;;;;23.10;9.98;;;;;;;2.21;76.84;100709.66;3155008;28;20055;-75
2023/12/19 05:07:32;;;;;;;20.65;10.38;;;;;;;2.91;77.00;100830.72;3159984;28;20604;-74
2023/12/19 05:09:03;;;;;;;25.45;11.32;;;;;;;2.87;76.96;100829.00;3165562;28;20048;-76
2023/12/19 05:10:34;;;;;;;19.95;9.82;;;;;;;2.85;77.00;100828.13;3167700;28;20101;-69
2023/12/19 05:12:07;;;;;;;29.10;10.52;;;;;;;2.84;77.07;100823.88;3166019;28;20062;-72
2023/12/19 05:13:39;;;;;;;21.42;10.48;;;;;;;2.82;77.13;100835.84;3163570;28;20051;-74
2023/12/19 05:15:10;;;;;;;26.00;12.55;;;;;;;2.81;77.13;100830.69;3159222;28;20048;-75
2023/12/19 05:16:42;;;;;;;26.77;12.48;;;;;;;2.78;77.16;100833.25;3159687;28;20048;-76
2023/12/19 05:18:13;;;;;;;63.40;28.25;;;;;;;2.64;77.32;100804.94;3164173;28;20055;-75
2023/12/19 05:19:44;;;;;;;123.32;49.15;;;;;;;2.81;77.39;100833.25;3166046;28;20052;-76
2023/12/19 05:21:15;;;;;;;140.55;62.50;;;;;;;2.80;77.39;100826.41;3161701;28;20540;-73
2023/12/19 05:22:47;;;;;;;50.10;24.42;;;;;;;2.85;77.37;100832.44;3153109;28;20051;-77
2023/12/19 05:24:18;;;;;;;23.77;12.45;;;;;;;2.85;77.20;100835.84;3153519;28;20074;-74
2023/12/19 05:25:50;;;;;;;24.88;11.40;;;;;;;2.84;77.18;100834.16;3153170;28;20048;-74
2023/12/19 05:27:22;;;;;;;22.50;10.30;;;;;;;2.84;77.19;100836.72;3153080;28;20525;-71
2023/12/19 05:28:54;;;;;;;133.43;60.80;;;;;;;2.84;77.19;100839.28;3156894;28;20058;-72
2023/12/19 05:30:26;;;;;;;85.13;38.58;;;;;;;2.85;77.13;100841.00;3160900;28;20051;-66
2023/12/19 05:31:57;;;;;;;84.85;40.20;;;;;;;2.89;77.18;100835.00;3157513;28;20242;-68
2023/12/19 05:33:31;;;;;;;107.15;49.67;;;;;;;2.10;77.15;100690.75;3165821;28;20449;-72
2023/12/19 05:35:03;;;;;;;28.90;15.68;;;;;;;2.91;76.95;100830.72;3161577;28;20055;-70
2023/12/19 05:36:36;;;;;;;23.63;12.45;;;;;;;2.90;76.97;100826.44;3152900;28;20168;-70
2023/12/19 05:38:07;;;;;;;27.08;13.15;;;;;;;2.88;76.88;100824.72;3158178;28;20056;-71
2023/12/19 05:39:41;;;;;;;24.70;13.23;;;;;;;2.85;77.06;100815.28;3152787;28;20197;-71
2023/12/19 05:41:14;;;;;;;28.35;14.23;;;;;;;2.84;77.13;100821.28;3153049;28;20056;-71
2023/12/19 05:42:47;;;;;;;;;;;;;;;2.69;77.17;100818.66;3153563;28;20056;-69
2023/12/19 05:44:18;;;;;;;29.67;12.95;;;;;;;2.71;77.35;100819.53;3155283;28;19923;-68
2023/12/19 05:45:50;;;;;;;26.50;13.90;;;;;;;2.70;77.26;100813.53;3153535;28;20056;-69
2023/12/19 05:47:21;;;;;;;33.72;14.95;;;;;;;2.73;77.42;100821.25;3153016;28;20052;-73
2023/12/19 05:48:53;;;;;;;32.22;15.88;;;;;;;2.73;77.44;100818.66;3156340;28;20506;-72
2023/12/19 05:50:24;;;;;;;64.88;31.42;;;;;;;2.74;77.55;100819.53;3165800;28;20071;-73
2023/12/19 05:51:56;;;;;;;103.95;45.20;;;;;;;2.75;77.60;100821.22;3158342;28;20185;-73
2023/12/19 05:53:27;;;;;;;77.43;35.10;;;;;;;2.79;77.63;100833.28;3153263;28;20075;-70
2023/12/19 05:54:59;;;;;;;39.80;20.77;;;;;;;2.79;77.57;100822.13;3154292;28;20051;-72
2023/12/19 05:56:30;;;;;;;37.25;16.50;;;;;;;2.81;77.55;100822.97;3165018;28;20086;-72
2023/12/19 05:58:04;;;;;;;34.40;17.33;;;;;;;2.82;77.64;100830.72;3153195;28;20143;-74
2023/12/19 05:59:34;;;;;;;31.48;15.60;;;;;;;2.78;77.62;100829.00;3158804;28;20476;-68
2023/12/19 06:01:06;;;;;;;31.80;15.20;;;;;;;2.82;77.53;100840.16;3158818;28;20102;-67
2023/12/19 06:02:37;;;;;;;31.40;14.90;;;;;;;2.82;77.69;100835.00;3152617;28;20048;-68
2023/12/19 06:04:09;;;;;;;28.58;13.52;;;;;;;2.81;77.66;100836.72;3161765;28;20093;-71
2023/12/19 06:05:40;;;;;;;27.23;13.88;;;;;;;2.80;77.69;100837.56;3158149;28;20059;-74
2023/12/19 06:07:12;;;;;;;36.97;17.63;;;;;;;2.80;77.74;100837.56;3158262;28;20052;-73
2023/12/19 06:08:43;;;;;;;41.00;21.67;;;;;;;2.82;77.68;100842.72;3152298;28;20055;-70
2023/12/19 06:10:15;;;;;;;38.53;21.10;;;;;;;2.82;77.88;100851.28;3152618;28;20101;-70
2023/12/19 06:11:46;;;;;;;38.83;19.00;;;;;;;2.85;77.73;100840.16;3152468;28;20611;-68
2023/12/19 06:13:19;;;;;;;35.03;17.67;;;;;;;2.13;77.63;100721.59;3154881;28;20130;-72
2023/12/19 06:14:50;;;;;;;37.10;17.50;;;;;;;2.86;78.04;100837.56;3152628;28;20048;-68
2023/12/19 06:16:22;;;;;;;34.63;16.25;;;;;;;2.90;77.95;100841.88;3152113;28;20112;-74
2023/12/19 06:17:53;;;;;;;33.10;17.17;;;;;;;2.96;78.12;100841.91;3159518;28;20052;-70
2023/12/19 06:19:25;;;;;;;43.08;20.00;;;;;;;3.04;78.10;100841.03;3154923;28;20497;-73
2023/12/19 06:20:56;;;;;;;47.38;20.35;;;;;;;3.12;78.30;100831.63;3164212;28;20058;-74
2023/12/19 06:22:28;;;;;;;37.08;18.70;;;;;;;3.22;78.45;100835.06;3152121;28;20090;-72
2023/12/19 06:23:58;;;;;;;37.40;18.27;;;;;;;3.29;78.28;100832.53;3165309;28;20064;-73
2023/12/19 06:25:31;;;;;;;35.25;17.60;;;;;;;3.41;78.22;100839.41;3152364;28;20060;-71
2023/12/19 06:27:03;;;;;;;31.33;16.75;;;;;;;3.50;78.37;100834.25;3164056;28;20443;-73
2023/12/19 06:28:38;;;;;;;33.35;17.80;;;;;;;3.61;78.28;100834.25;3163811;28;20051;-73
2023/12/19 06:30:10;;;;;;;37.25;19.08;;;;;;;3.69;78.11;100837.66;3154409;28;20216;-70
2023/12/19 06:31:45;;;;;;;35.17;16.58;;;;;;;3.82;77.79;100846.28;3151958;28;20072;-71
2023/12/19 06:33:16;;;;;;;34.55;17.75;;;;;;;3.93;77.65;100835.94;3154412;28;20055;-68
2023/12/19 06:34:48;;;;;;;33.63;17.35;;;;;;;4.04;77.64;100840.22;3156530;28;20071;-74
2023/12/19 06:36:29;;;;;;;38.60;19.45;;;;;;;4.18;77.12;100840.19;3152080;28;20105;-74
2023/12/19 06:38:01;;;;;;;37.38;18.75;;;;;;;4.29;77.14;100838.44;3154407;28;20059;-70
2023/12/19 06:39:32;;;;;;;33.33;17.33;;;;;;;4.43;76.92;100835.81;3159704;28;20051;-73
2023/12/19 06:41:04;;;;;;;42.17;18.83;;;;;;;4.53;76.71;100828.91;3158167;28;20206;-75
2023/12/19 06:42:35;;;;;;;43.55;18.58;;;;;;;4.63;76.35;100833.16;3152833;28;20055;-71
2023/12/19 06:44:09;;;;;;;44.63;18.60;;;;;;;4.70;75.99;100829.72;3161090;28;20396;-69
2023/12/19 06:45:39;;;;;;;35.38;17.27;;;;;;;4.79;76.08;100842.56;3151352;28;20501;-70
2023/12/19 06:47:12;;;;;;;58.42;23.90;;;;;;;4.90;75.78;100823.56;3153643;28;20059;-71
2023/12/19 06:48:43;;;;;;;47.25;22.23;;;;;;;4.57;75.58;100768.69;3151926;28;20106;-68
2023/12/19 06:50:16;;;;;;;43.42;20.80;;;;;;;5.11;75.08;100828.59;3158123;28;20047;-74
2023/12/19 06:51:47;;;;;;;46.53;21.52;;;;;;;5.19;74.93;100824.25;3158905;28;20052;-73
2023/12/19 06:53:19;;;;;;;57.20;26.65;;;;;;;5.31;74.81;100827.63;3159841;28;20571;-76
2023/12/19 06:54:50;;;;;;;53.97;25.45;;;;;;;5.41;74.66;100826.66;3151612;28;20052;-73
2023/12/19 06:56:26;;;;;;;46.00;20.65;;;;;;;5.52;74.22;100827.44;3159341;28;20063;-73
2023/12/19 06:57:57;;;;;;;46.25;21.48;;;;;;;5.62;73.98;100826.53;3155279;28;20873;-72
2023/12/19 06:59:32;;;;;;;51.28;20.80;;;;;;;5.76;73.77;100833.28;3160051;28;20130;-74
2023/12/19 07:01:03;;;;;;;43.67;20.88;;;;;;;5.84;73.31;100828.91;3157921;28;20094;-73
2023/12/19 07:02:36;;;;;;;48.83;22.55;;;;;;;5.96;73.25;100840.91;3157098;28;20244;-72
2023/12/19 07:04:07;;;;;;;48.58;21.50;;;;;;;6.04;72.69;100833.94;3154666;28;20062;-74
2023/12/19 07:05:39;;;;;;;45.33;21.92;;;;;;;6.14;72.78;100836.38;3151535;28;20588;-75
2023/12/19 07:07:09;;;;;;;49.13;24.45;;;;;;;6.25;72.08;100838.88;3153639;28;20047;-75